Pagrindinis puslapis
METAR-TAF:

METAR-TAF

Oro uostai :

Camiri, Bolivija

platuma: 20-00S, ilguma: 063-32W, Aukštis: 798 m

Dabartinis oras

Ataskaita buvo paskelbta 19 minutes, ne 12:00 UTC
Ramus vėjas
Temperatūra 12°C
Drėgmė 100%
Slėgis 1023 hPa
Matomumas 10 km arba daugiau
Apsiniaukę ne aukštis 1000 ft

METAR: SLCA 161200Z 00000KT 9999 OVC010 12/12 Q1023

Laikas: 08:19 (12:19 UTC)


TAF: trūkstamas

Orai ataskaitas ir orų prognozės (METAR, TAF).

turimą stotys yra geltonos ir raudonos taškus žemėlapyje.

Perkelti pele per norėdami pamatyti stoties vardą.

Tada spustelėkite, norėdami matyti oro stebėjimo ir prognozės.

Norėdami pakeisti žemėlapį: spustelėkite ant žalios mygtukų su juodo kryžiaus žemyn,; žalią mygtuką su brūkšneliu, jei norite nutolinti; arba žalių rodyklių gretimoms žemėlapius.


METAR-TAF: